sensor_id;sensor_type;location;lat;lon;timestamp;P1;durP1;ratioP1;P2;durP2;ratioP2
79130;SDS011;68530;45.194;9.142;2023-04-06T00:00:32;8.75;;;4.97;;
79130;SDS011;68530;45.194;9.142;2023-04-06T00:02:58;9.18;;;5.97;;
79130;SDS011;68530;45.194;9.142;2023-04-06T00:05:23;9.80;;;5.43;;
79130;SDS011;68530;45.194;9.142;2023-04-06T00:07:49;9.88;;;5.70;;
79130;SDS011;68530;45.194;9.142;2023-04-06T00:10:15;8.50;;;5.85;;
79130;SDS011;68530;45.194;9.142;2023-04-06T00:12:41;10.05;;;5.65;;
79130;SDS011;68530;45.194;9.142;2023-04-06T00:15:06;7.70;;;5.72;;
79130;SDS011;68530;45.194;9.142;2023-04-06T00:17:32;7.88;;;5.55;;
79130;SDS011;68530;45.194;9.142;2023-04-06T00:19:58;8.88;;;6.07;;
79130;SDS011;68530;45.194;9.142;2023-04-06T00:22:23;10.23;;;6.18;;
79130;SDS011;68530;45.194;9.142;2023-04-06T00:24:48;17.17;;;6.43;;
79130;SDS011;68530;45.194;9.142;2023-04-06T00:27:14;9.30;;;5.53;;
79130;SDS011;68530;45.194;9.142;2023-04-06T00:29:40;7.97;;;5.80;;
79130;SDS011;68530;45.194;9.142;2023-04-06T00:32:05;11.35;;;6.20;;
79130;SDS011;68530;45.194;9.142;2023-04-06T00:34:31;8.45;;;5.75;;
79130;SDS011;68530;45.194;9.142;2023-04-06T00:36:56;8.65;;;5.70;;
79130;SDS011;68530;45.194;9.142;2023-04-06T00:39:22;8.38;;;5.90;;
79130;SDS011;68530;45.194;9.142;2023-04-06T00:41:49;8.40;;;5.47;;
79130;SDS011;68530;45.194;9.142;2023-04-06T00:44:17;8.73;;;5.63;;
79130;SDS011;68530;45.194;9.142;2023-04-06T00:46:42;8.98;;;6.30;;
79130;SDS011;68530;45.194;9.142;2023-04-06T00:49:08;7.55;;;5.63;;
79130;SDS011;68530;45.194;9.142;2023-04-06T00:51:33;9.32;;;6.03;;
79130;SDS011;68530;45.194;9.142;2023-04-06T00:53:59;9.15;;;5.75;;
79130;SDS011;68530;45.194;9.142;2023-04-06T00:56:24;8.18;;;5.65;;
79130;SDS011;68530;45.194;9.142;2023-04-06T00:58:51;8.10;;;5.57;;
79130;SDS011;68530;45.194;9.142;2023-04-06T01:01:17;8.93;;;5.90;;
79130;SDS011;68530;45.194;9.142;2023-04-06T01:03:42;8.77;;;5.68;;
79130;SDS011;68530;45.194;9.142;2023-04-06T01:06:09;9.80;;;5.82;;
79130;SDS011;68530;45.194;9.142;2023-04-06T01:08:35;8.95;;;5.72;;
79130;SDS011;68530;45.194;9.142;2023-04-06T01:11:01;9.02;;;5.93;;
79130;SDS011;68530;45.194;9.142;2023-04-06T01:13:26;10.43;;;6.15;;
79130;SDS011;68530;45.194;9.142;2023-04-06T01:15:52;9.05;;;5.60;;
79130;SDS011;68530;45.194;9.142;2023-04-06T01:18:18;9.07;;;5.88;;
79130;SDS011;68530;45.194;9.142;2023-04-06T01:20:43;9.73;;;5.85;;
79130;SDS011;68530;45.194;9.142;2023-04-06T01:23:09;8.93;;;5.43;;
79130;SDS011;68530;45.194;9.142;2023-04-06T01:25:34;8.52;;;5.35;;
79130;SDS011;68530;45.194;9.142;2023-04-06T01:28:00;9.20;;;5.50;;
79130;SDS011;68530;45.194;9.142;2023-04-06T01:30:25;10.23;;;6.45;;
79130;SDS011;68530;45.194;9.142;2023-04-06T01:32:51;8.98;;;5.50;;
79130;SDS011;68530;45.194;9.142;2023-04-06T01:35:17;9.00;;;6.18;;
79130;SDS011;68530;45.194;9.142;2023-04-06T01:37:43;8.77;;;5.95;;
79130;SDS011;68530;45.194;9.142;2023-04-06T01:40:09;9.27;;;6.22;;
79130;SDS011;68530;45.194;9.142;2023-04-06T01:42:36;9.45;;;6.90;;
79130;SDS011;68530;45.194;9.142;2023-04-06T01:45:02;10.75;;;6.05;;
79130;SDS011;68530;45.194;9.142;2023-04-06T01:47:27;8.70;;;6.25;;
79130;SDS011;68530;45.194;9.142;2023-04-06T01:49:53;9.07;;;6.38;;
79130;SDS011;68530;45.194;9.142;2023-04-06T01:52:18;10.45;;;6.35;;
79130;SDS011;68530;45.194;9.142;2023-04-06T01:54:43;9.95;;;6.53;;
79130;SDS011;68530;45.194;9.142;2023-04-06T01:57:10;11.95;;;6.97;;
79130;SDS011;68530;45.194;9.142;2023-04-06T01:59:35;9.52;;;6.40;;
79130;SDS011;68530;45.194;9.142;2023-04-06T02:02:01;8.07;;;6.13;;
79130;SDS011;68530;45.194;9.142;2023-04-06T02:04:26;9.38;;;6.88;;
79130;SDS011;68530;45.194;9.142;2023-04-06T02:06:51;10.43;;;7.10;;
79130;SDS011;68530;45.194;9.142;2023-04-06T02:09:17;9.35;;;6.72;;
79130;SDS011;68530;45.194;9.142;2023-04-06T02:11:42;10.40;;;6.80;;
79130;SDS011;68530;45.194;9.142;2023-04-06T02:14:07;10.50;;;7.20;;
79130;SDS011;68530;45.194;9.142;2023-04-06T02:16:33;10.40;;;6.95;;
79130;SDS011;68530;45.194;9.142;2023-04-06T02:18:58;9.90;;;7.13;;
79130;SDS011;68530;45.194;9.142;2023-04-06T02:21:24;11.63;;;7.18;;
79130;SDS011;68530;45.194;9.142;2023-04-06T02:23:49;8.85;;;6.90;;
79130;SDS011;68530;45.194;9.142;2023-04-06T02:26:15;12.13;;;7.50;;
79130;SDS011;68530;45.194;9.142;2023-04-06T02:28:40;10.32;;;7.15;;
79130;SDS011;68530;45.194;9.142;2023-04-06T02:31:06;10.88;;;6.95;;
79130;SDS011;68530;45.194;9.142;2023-04-06T02:33:32;11.52;;;7.50;;
79130;SDS011;68530;45.194;9.142;2023-04-06T02:35:57;11.25;;;7.70;;
79130;SDS011;68530;45.194;9.142;2023-04-06T02:38:23;11.80;;;7.82;;
79130;SDS011;68530;45.194;9.142;2023-04-06T02:40:48;11.25;;;8.10;;
79130;SDS011;68530;45.194;9.142;2023-04-06T02:43:14;9.57;;;6.88;;
79130;SDS011;68530;45.194;9.142;2023-04-06T02:45:40;11.88;;;7.40;;
79130;SDS011;68530;45.194;9.142;2023-04-06T02:48:05;14.63;;;8.15;;
79130;SDS011;68530;45.194;9.142;2023-04-06T02:50:31;10.10;;;6.90;;
79130;SDS011;68530;45.194;9.142;2023-04-06T02:52:56;10.25;;;7.75;;
79130;SDS011;68530;45.194;9.142;2023-04-06T02:55:21;12.68;;;7.53;;
79130;SDS011;68530;45.194;9.142;2023-04-06T02:57:47;10.10;;;6.90;;
79130;SDS011;68530;45.194;9.142;2023-04-06T03:00:12;10.88;;;7.63;;
79130;SDS011;68530;45.194;9.142;2023-04-06T03:02:38;11.57;;;7.80;;
79130;SDS011;68530;45.194;9.142;2023-04-06T03:05:03;11.73;;;7.75;;
79130;SDS011;68530;45.194;9.142;2023-04-06T03:07:29;10.15;;;6.78;;
79130;SDS011;68530;45.194;9.142;2023-04-06T03:09:54;16.48;;;7.85;;
79130;SDS011;68530;45.194;9.142;2023-04-06T03:12:20;10.85;;;7.72;;
79130;SDS011;68530;45.194;9.142;2023-04-06T03:14:45;10.77;;;7.38;;
79130;SDS011;68530;45.194;9.142;2023-04-06T03:17:11;11.25;;;7.20;;
79130;SDS011;68530;45.194;9.142;2023-04-06T03:19:36;10.50;;;7.63;;
79130;SDS011;68530;45.194;9.142;2023-04-06T03:22:01;12.25;;;8.30;;
79130;SDS011;68530;45.194;9.142;2023-04-06T03:24:27;11.52;;;7.75;;
79130;SDS011;68530;45.194;9.142;2023-04-06T03:26:52;11.43;;;7.88;;
79130;SDS011;68530;45.194;9.142;2023-04-06T03:29:18;10.65;;;8.07;;
79130;SDS011;68530;45.194;9.142;2023-04-06T03:31:43;9.77;;;7.85;;
79130;SDS011;68530;45.194;9.142;2023-04-06T03:34:09;12.50;;;8.30;;
79130;SDS011;68530;45.194;9.142;2023-04-06T03:36:35;13.57;;;8.73;;
79130;SDS011;68530;45.194;9.142;2023-04-06T03:39:00;11.85;;;8.10;;
79130;SDS011;68530;45.194;9.142;2023-04-06T03:41:26;10.88;;;7.45;;
79130;SDS011;68530;45.194;9.142;2023-04-06T03:43:52;11.63;;;8.30;;
79130;SDS011;68530;45.194;9.142;2023-04-06T03:46:17;11.88;;;8.48;;
79130;SDS011;68530;45.194;9.142;2023-04-06T03:48:43;13.13;;;8.27;;
79130;SDS011;68530;45.194;9.142;2023-04-06T03:51:08;10.88;;;7.88;;
79130;SDS011;68530;45.194;9.142;2023-04-06T03:53:33;13.65;;;8.50;;
79130;SDS011;68530;45.194;9.142;2023-04-06T03:55:59;12.80;;;8.77;;
79130;SDS011;68530;45.194;9.142;2023-04-06T03:58:24;11.68;;;8.88;;
79130;SDS011;68530;45.194;9.142;2023-04-06T04:00:50;11.35;;;7.82;;
79130;SDS011;68530;45.194;9.142;2023-04-06T04:03:15;13.00;;;7.97;;
79130;SDS011;68530;45.194;9.142;2023-04-06T04:05:41;11.00;;;8.32;;
79130;SDS011;68530;45.194;9.142;2023-04-06T04:08:07;13.43;;;8.45;;
79130;SDS011;68530;45.194;9.142;2023-04-06T04:10:32;13.35;;;8.50;;
79130;SDS011;68530;45.194;9.142;2023-04-06T04:12:57;12.43;;;8.95;;
79130;SDS011;68530;45.194;9.142;2023-04-06T04:15:23;15.95;;;8.77;;
79130;SDS011;68530;45.194;9.142;2023-04-06T04:17:48;12.05;;;8.20;;
79130;SDS011;68530;45.194;9.142;2023-04-06T04:20:15;16.92;;;9.13;;
79130;SDS011;68530;45.194;9.142;2023-04-06T04:22:41;12.90;;;8.65;;
79130;SDS011;68530;45.194;9.142;2023-04-06T04:25:07;14.10;;;8.55;;
79130;SDS011;68530;45.194;9.142;2023-04-06T04:27:32;12.77;;;8.43;;
79130;SDS011;68530;45.194;9.142;2023-04-06T04:29:58;12.10;;;8.02;;
79130;SDS011;68530;45.194;9.142;2023-04-06T04:32:23;15.73;;;9.27;;
79130;SDS011;68530;45.194;9.142;2023-04-06T04:34:52;15.82;;;9.50;;
79130;SDS011;68530;45.194;9.142;2023-04-06T04:37:18;12.23;;;8.18;;
79130;SDS011;68530;45.194;9.142;2023-04-06T04:39:44;12.85;;;8.50;;
79130;SDS011;68530;45.194;9.142;2023-04-06T04:42:10;12.32;;;8.60;;
79130;SDS011;68530;45.194;9.142;2023-04-06T04:44:36;12.07;;;8.32;;
79130;SDS011;68530;45.194;9.142;2023-04-06T04:47:01;13.30;;;8.45;;
79130;SDS011;68530;45.194;9.142;2023-04-06T04:49:27;12.65;;;8.38;;
79130;SDS011;68530;45.194;9.142;2023-04-06T04:51:52;12.45;;;8.25;;
79130;SDS011;68530;45.194;9.142;2023-04-06T04:54:18;13.77;;;9.40;;
79130;SDS011;68530;45.194;9.142;2023-04-06T04:56:44;11.73;;;7.78;;
79130;SDS011;68530;45.194;9.142;2023-04-06T04:59:10;10.98;;;8.10;;
79130;SDS011;68530;45.194;9.142;2023-04-06T05:01:35;13.23;;;8.23;;
79130;SDS011;68530;45.194;9.142;2023-04-06T05:04:01;13.18;;;8.07;;
79130;SDS011;68530;45.194;9.142;2023-04-06T05:06:26;12.55;;;8.27;;
79130;SDS011;68530;45.194;9.142;2023-04-06T05:08:51;11.05;;;7.80;;
79130;SDS011;68530;45.194;9.142;2023-04-06T05:11:17;11.88;;;8.13;;
79130;SDS011;68530;45.194;9.142;2023-04-06T05:13:42;11.00;;;7.60;;
79130;SDS011;68530;45.194;9.142;2023-04-06T05:16:08;12.40;;;7.82;;
79130;SDS011;68530;45.194;9.142;2023-04-06T05:18:33;10.85;;;7.50;;
79130;SDS011;68530;45.194;9.142;2023-04-06T05:20:59;12.77;;;8.40;;
79130;SDS011;68530;45.194;9.142;2023-04-06T05:23:25;11.55;;;7.55;;
79130;SDS011;68530;45.194;9.142;2023-04-06T05:25:50;11.65;;;7.88;;
79130;SDS011;68530;45.194;9.142;2023-04-06T05:28:16;13.48;;;8.85;;
79130;SDS011;68530;45.194;9.142;2023-04-06T05:30:42;10.35;;;7.22;;
79130;SDS011;68530;45.194;9.142;2023-04-06T05:33:09;10.48;;;7.30;;
79130;SDS011;68530;45.194;9.142;2023-04-06T05:35:34;10.57;;;8.35;;
79130;SDS011;68530;45.194;9.142;2023-04-06T05:38:00;15.20;;;8.00;;
79130;SDS011;68530;45.194;9.142;2023-04-06T05:40:25;13.52;;;8.38;;
79130;SDS011;68530;45.194;9.142;2023-04-06T05:42:51;11.00;;;7.63;;
79130;SDS011;68530;45.194;9.142;2023-04-06T05:45:16;11.43;;;7.10;;
79130;SDS011;68530;45.194;9.142;2023-04-06T05:47:43;11.35;;;7.90;;
79130;SDS011;68530;45.194;9.142;2023-04-06T05:50:09;12.10;;;7.57;;
79130;SDS011;68530;45.194;9.142;2023-04-06T05:52:36;9.63;;;6.88;;
79130;SDS011;68530;45.194;9.142;2023-04-06T05:55:02;13.85;;;7.25;;
79130;SDS011;68530;45.194;9.142;2023-04-06T05:57:28;11.13;;;7.70;;
79130;SDS011;68530;45.194;9.142;2023-04-06T05:59:53;11.57;;;8.27;;
79130;SDS011;68530;45.194;9.142;2023-04-06T06:02:20;11.02;;;7.88;;
79130;SDS011;68530;45.194;9.142;2023-04-06T06:04:46;12.38;;;8.07;;
79130;SDS011;68530;45.194;9.142;2023-04-06T06:07:11;10.65;;;7.53;;
79130;SDS011;68530;45.194;9.142;2023-04-06T06:09:36;10.75;;;7.78;;
79130;SDS011;68530;45.194;9.142;2023-04-06T06:12:02;11.18;;;7.55;;
79130;SDS011;68530;45.194;9.142;2023-04-06T06:14:27;11.90;;;7.75;;
79130;SDS011;68530;45.194;9.142;2023-04-06T06:16:56;12.00;;;8.43;;
79130;SDS011;68530;45.194;9.142;2023-04-06T06:19:21;12.05;;;8.27;;
79130;SDS011;68530;45.194;9.142;2023-04-06T06:21:47;11.85;;;7.95;;
79130;SDS011;68530;45.194;9.142;2023-04-06T06:24:12;13.20;;;8.05;;
79130;SDS011;68530;45.194;9.142;2023-04-06T06:26:37;12.75;;;7.78;;
79130;SDS011;68530;45.194;9.142;2023-04-06T06:29:04;12.60;;;7.65;;
79130;SDS011;68530;45.194;9.142;2023-04-06T06:31:30;10.63;;;8.48;;
79130;SDS011;68530;45.194;9.142;2023-04-06T06:33:56;14.48;;;8.73;;
79130;SDS011;68530;45.194;9.142;2023-04-06T06:36:21;10.20;;;7.78;;
79130;SDS011;68530;45.194;9.142;2023-04-06T06:38:47;13.77;;;8.13;;
79130;SDS011;68530;45.194;9.142;2023-04-06T06:41:12;18.58;;;8.65;;
79130;SDS011;68530;45.194;9.142;2023-04-06T06:43:38;16.75;;;8.60;;
79130;SDS011;68530;45.194;9.142;2023-04-06T06:46:04;11.27;;;7.63;;
79130;SDS011;68530;45.194;9.142;2023-04-06T06:48:29;11.50;;;7.50;;
79130;SDS011;68530;45.194;9.142;2023-04-06T06:50:55;12.30;;;8.18;;
79130;SDS011;68530;45.194;9.142;2023-04-06T06:53:21;11.82;;;8.30;;
79130;SDS011;68530;45.194;9.142;2023-04-06T06:55:47;12.13;;;8.05;;
79130;SDS011;68530;45.194;9.142;2023-04-06T06:58:18;12.15;;;8.20;;
79130;SDS011;68530;45.194;9.142;2023-04-06T07:00:46;10.88;;;7.40;;
79130;SDS011;68530;45.194;9.142;2023-04-06T07:03:12;12.20;;;8.40;;
79130;SDS011;68530;45.194;9.142;2023-04-06T07:05:37;12.43;;;8.63;;
79130;SDS011;68530;45.194;9.142;2023-04-06T07:08:03;13.23;;;9.40;;
79130;SDS011;68530;45.194;9.142;2023-04-06T07:10:29;12.35;;;8.85;;
79130;SDS011;68530;45.194;9.142;2023-04-06T07:12:54;12.60;;;8.30;;
79130;SDS011;68530;45.194;9.142;2023-04-06T07:15:20;12.45;;;8.95;;
79130;SDS011;68530;45.194;9.142;2023-04-06T07:17:46;13.75;;;9.40;;
79130;SDS011;68530;45.194;9.142;2023-04-06T07:20:11;14.48;;;9.05;;
79130;SDS011;68530;45.194;9.142;2023-04-06T07:22:38;11.95;;;9.25;;
79130;SDS011;68530;45.194;9.142;2023-04-06T07:25:04;15.15;;;9.93;;
79130;SDS011;68530;45.194;9.142;2023-04-06T07:27:30;13.50;;;8.70;;
79130;SDS011;68530;45.194;9.142;2023-04-06T07:29:56;13.48;;;10.15;;
79130;SDS011;68530;45.194;9.142;2023-04-06T07:32:21;13.73;;;9.70;;
79130;SDS011;68530;45.194;9.142;2023-04-06T07:34:47;15.15;;;10.10;;
79130;SDS011;68530;45.194;9.142;2023-04-06T07:37:12;16.30;;;10.20;;
79130;SDS011;68530;45.194;9.142;2023-04-06T07:39:37;17.30;;;10.05;;
79130;SDS011;68530;45.194;9.142;2023-04-06T07:42:03;13.68;;;10.27;;
79130;SDS011;68530;45.194;9.142;2023-04-06T07:44:28;12.82;;;9.35;;
79130;SDS011;68530;45.194;9.142;2023-04-06T07:46:54;14.32;;;8.93;;
79130;SDS011;68530;45.194;9.142;2023-04-06T07:49:20;12.13;;;9.30;;
79130;SDS011;68530;45.194;9.142;2023-04-06T07:51:46;13.48;;;10.30;;
79130;SDS011;68530;45.194;9.142;2023-04-06T07:54:11;14.82;;;9.73;;
79130;SDS011;68530;45.194;9.142;2023-04-06T07:56:36;12.50;;;9.13;;
79130;SDS011;68530;45.194;9.142;2023-04-06T07:59:02;14.48;;;8.60;;
79130;SDS011;68530;45.194;9.142;2023-04-06T08:01:28;15.05;;;9.65;;
79130;SDS011;68530;45.194;9.142;2023-04-06T08:03:54;16.42;;;10.68;;
79130;SDS011;68530;45.194;9.142;2023-04-06T08:06:20;11.65;;;9.13;;
79130;SDS011;68530;45.194;9.142;2023-04-06T08:08:46;13.10;;;9.10;;
79130;SDS011;68530;45.194;9.142;2023-04-06T08:11:11;13.32;;;8.88;;
79130;SDS011;68530;45.194;9.142;2023-04-06T08:13:36;12.75;;;9.55;;
79130;SDS011;68530;45.194;9.142;2023-04-06T08:16:02;12.90;;;9.07;;
79130;SDS011;68530;45.194;9.142;2023-04-06T08:18:28;13.57;;;9.48;;
79130;SDS011;68530;45.194;9.142;2023-04-06T08:20:54;13.27;;;9.57;;
79130;SDS011;68530;45.194;9.142;2023-04-06T08:23:23;14.35;;;9.63;;
79130;SDS011;68530;45.194;9.142;2023-04-06T08:25:48;13.02;;;9.05;;
79130;SDS011;68530;45.194;9.142;2023-04-06T08:28:14;14.50;;;10.02;;
79130;SDS011;68530;45.194;9.142;2023-04-06T08:30:40;12.57;;;9.00;;
79130;SDS011;68530;45.194;9.142;2023-04-06T08:33:06;14.40;;;9.18;;
79130;SDS011;68530;45.194;9.142;2023-04-06T08:35:32;12.55;;;9.15;;
79130;SDS011;68530;45.194;9.142;2023-04-06T08:37:57;13.48;;;8.82;;
79130;SDS011;68530;45.194;9.142;2023-04-06T08:40:23;13.75;;;10.13;;
79130;SDS011;68530;45.194;9.142;2023-04-06T08:42:53;14.00;;;10.02;;
79130;SDS011;68530;45.194;9.142;2023-04-06T08:47:49;13.57;;;9.75;;
79130;SDS011;68530;45.194;9.142;2023-04-06T08:50:16;12.32;;;8.75;;
79130;SDS011;68530;45.194;9.142;2023-04-06T08:52:46;18.50;;;10.07;;
79130;SDS011;68530;45.194;9.142;2023-04-06T08:55:15;12.73;;;8.93;;
79130;SDS011;68530;45.194;9.142;2023-04-06T08:57:41;12.32;;;8.27;;
79130;SDS011;68530;45.194;9.142;2023-04-06T09:00:07;16.10;;;9.38;;
79130;SDS011;68530;45.194;9.142;2023-04-06T09:02:37;12.80;;;8.70;;
79130;SDS011;68530;45.194;9.142;2023-04-06T09:05:04;12.50;;;9.43;;
79130;SDS011;68530;45.194;9.142;2023-04-06T09:07:29;11.98;;;8.52;;
79130;SDS011;68530;45.194;9.142;2023-04-06T09:09:57;11.15;;;8.45;;
79130;SDS011;68530;45.194;9.142;2023-04-06T09:12:26;11.85;;;8.55;;
79130;SDS011;68530;45.194;9.142;2023-04-06T09:14:54;12.65;;;8.77;;
79130;SDS011;68530;45.194;9.142;2023-04-06T09:17:24;10.60;;;7.88;;
79130;SDS011;68530;45.194;9.142;2023-04-06T09:19:51;10.30;;;7.53;;
79130;SDS011;68530;45.194;9.142;2023-04-06T09:22:17;12.30;;;7.82;;
79130;SDS011;68530;45.194;9.142;2023-04-06T09:24:47;10.70;;;7.10;;
79130;SDS011;68530;45.194;9.142;2023-04-06T09:27:17;12.10;;;6.95;;
79130;SDS011;68530;45.194;9.142;2023-04-06T09:30:01;10.85;;;6.93;;
79130;SDS011;68530;45.194;9.142;2023-04-06T09:32:28;12.68;;;7.22;;
79130;SDS011;68530;45.194;9.142;2023-04-06T09:34:53;12.65;;;7.47;;
79130;SDS011;68530;45.194;9.142;2023-04-06T09:37:19;10.07;;;6.97;;
79130;SDS011;68530;45.194;9.142;2023-04-06T09:39:45;11.65;;;7.68;;
79130;SDS011;68530;45.194;9.142;2023-04-06T09:42:24;10.75;;;7.72;;
79130;SDS011;68530;45.194;9.142;2023-04-06T09:44:50;11.15;;;7.30;;
79130;SDS011;68530;45.194;9.142;2023-04-06T09:47:16;12.65;;;7.90;;
79130;SDS011;68530;45.194;9.142;2023-04-06T09:49:42;9.73;;;7.07;;
79130;SDS011;68530;45.194;9.142;2023-04-06T09:52:10;11.13;;;7.28;;
79130;SDS011;68530;45.194;9.142;2023-04-06T09:54:37;9.93;;;6.88;;
79130;SDS011;68530;45.194;9.142;2023-04-06T09:57:07;9.60;;;7.03;;
79130;SDS011;68530;45.194;9.142;2023-04-06T10:02:47;10.93;;;6.28;;
79130;SDS011;68530;45.194;9.142;2023-04-06T10:07:57;9.52;;;6.78;;
79130;SDS011;68530;45.194;9.142;2023-04-06T10:10:27;12.27;;;7.45;;
79130;SDS011;68530;45.194;9.142;2023-04-06T10:12:53;10.65;;;6.68;;
79130;SDS011;68530;45.194;9.142;2023-04-06T10:15:19;10.52;;;7.50;;
79130;SDS011;68530;45.194;9.142;2023-04-06T10:17:45;10.68;;;7.05;;
79130;SDS011;68530;45.194;9.142;2023-04-06T10:20:11;14.63;;;7.68;;
79130;SDS011;68530;45.194;9.142;2023-04-06T10:23:04;14.48;;;7.47;;
79130;SDS011;68530;45.194;9.142;2023-04-06T10:25:40;12.07;;;7.32;;
79130;SDS011;68530;45.194;9.142;2023-04-06T10:28:30;10.23;;;6.63;;
79130;SDS011;68530;45.194;9.142;2023-04-06T10:30:57;9.93;;;7.35;;
79130;SDS011;68530;45.194;9.142;2023-04-06T10:33:24;11.10;;;6.63;;
79130;SDS011;68530;45.194;9.142;2023-04-06T10:35:50;11.13;;;6.70;;
79130;SDS011;68530;45.194;9.142;2023-04-06T10:38:15;11.23;;;7.18;;
79130;SDS011;68530;45.194;9.142;2023-04-06T10:40:45;14.25;;;7.13;;
79130;SDS011;68530;45.194;9.142;2023-04-06T10:45:54;13.32;;;7.38;;
79130;SDS011;68530;45.194;9.142;2023-04-06T10:48:21;12.00;;;7.53;;
79130;SDS011;68530;45.194;9.142;2023-04-06T10:50:50;12.40;;;7.10;;
79130;SDS011;68530;45.194;9.142;2023-04-06T10:53:21;12.80;;;7.85;;
79130;SDS011;68530;45.194;9.142;2023-04-06T10:55:48;9.63;;;6.93;;
79130;SDS011;68530;45.194;9.142;2023-04-06T10:58:15;10.50;;;7.00;;
79130;SDS011;68530;45.194;9.142;2023-04-06T11:00:47;11.60;;;7.13;;
79130;SDS011;68530;45.194;9.142;2023-04-06T11:03:14;12.55;;;6.78;;
79130;SDS011;68530;45.194;9.142;2023-04-06T11:05:43;11.15;;;6.85;;
79130;SDS011;68530;45.194;9.142;2023-04-06T11:08:09;9.55;;;5.90;;
79130;SDS011;68530;45.194;9.142;2023-04-06T11:10:35;10.45;;;6.18;;
79130;SDS011;68530;45.194;9.142;2023-04-06T11:13:00;9.88;;;6.25;;
79130;SDS011;68530;45.194;9.142;2023-04-06T11:15:26;50.75;;;9.90;;
79130;SDS011;68530;45.194;9.142;2023-04-06T11:17:51;13.43;;;6.93;;
79130;SDS011;68530;45.194;9.142;2023-04-06T11:20:16;10.55;;;7.80;;
79130;SDS011;68530;45.194;9.142;2023-04-06T11:22:50;9.85;;;7.68;;
79130;SDS011;68530;45.194;9.142;2023-04-06T11:25:16;11.27;;;7.28;;
79130;SDS011;68530;45.194;9.142;2023-04-06T11:27:42;14.27;;;7.43;;
79130;SDS011;68530;45.194;9.142;2023-04-06T11:30:08;11.75;;;7.40;;
79130;SDS011;68530;45.194;9.142;2023-04-06T11:32:44;10.75;;;7.03;;
79130;SDS011;68530;45.194;9.142;2023-04-06T11:35:31;11.13;;;7.22;;
79130;SDS011;68530;45.194;9.142;2023-04-06T11:37:56;12.13;;;7.80;;
79130;SDS011;68530;45.194;9.142;2023-04-06T11:40:22;13.23;;;7.70;;
79130;SDS011;68530;45.194;9.142;2023-04-06T11:42:54;12.38;;;7.38;;
79130;SDS011;68530;45.194;9.142;2023-04-06T11:45:20;11.55;;;7.63;;
79130;SDS011;68530;45.194;9.142;2023-04-06T11:47:54;12.45;;;8.10;;
79130;SDS011;68530;45.194;9.142;2023-04-06T11:50:22;16.75;;;9.43;;
79130;SDS011;68530;45.194;9.142;2023-04-06T11:52:47;14.13;;;8.85;;
79130;SDS011;68530;45.194;9.142;2023-04-06T11:55:24;14.65;;;8.55;;
79130;SDS011;68530;45.194;9.142;2023-04-06T11:57:50;12.98;;;8.10;;
79130;SDS011;68530;45.194;9.142;2023-04-06T12:00:16;12.38;;;7.93;;
79130;SDS011;68530;45.194;9.142;2023-04-06T12:02:45;10.77;;;7.90;;
79130;SDS011;68530;45.194;9.142;2023-04-06T12:05:14;12.50;;;7.60;;
79130;SDS011;68530;45.194;9.142;2023-04-06T12:07:40;11.13;;;7.55;;
79130;SDS011;68530;45.194;9.142;2023-04-06T12:10:05;11.35;;;7.55;;
79130;SDS011;68530;45.194;9.142;2023-04-06T12:12:31;12.75;;;7.60;;
79130;SDS011;68530;45.194;9.142;2023-04-06T12:14:57;11.27;;;7.85;;
79130;SDS011;68530;45.194;9.142;2023-04-06T12:17:23;11.57;;;7.97;;
79130;SDS011;68530;45.194;9.142;2023-04-06T12:19:49;11.93;;;8.32;;
79130;SDS011;68530;45.194;9.142;2023-04-06T12:22:15;12.98;;;9.27;;
79130;SDS011;68530;45.194;9.142;2023-04-06T12:24:42;13.02;;;8.98;;
79130;SDS011;68530;45.194;9.142;2023-04-06T12:27:08;14.98;;;8.75;;
79130;SDS011;68530;45.194;9.142;2023-04-06T12:29:33;12.57;;;8.27;;
79130;SDS011;68530;45.194;9.142;2023-04-06T12:31:59;13.82;;;8.85;;
79130;SDS011;68530;45.194;9.142;2023-04-06T12:34:26;12.55;;;8.68;;
79130;SDS011;68530;45.194;9.142;2023-04-06T12:36:51;14.02;;;8.77;;
79130;SDS011;68530;45.194;9.142;2023-04-06T12:39:18;12.93;;;8.75;;
79130;SDS011;68530;45.194;9.142;2023-04-06T12:41:43;11.70;;;7.97;;
79130;SDS011;68530;45.194;9.142;2023-04-06T12:44:09;11.15;;;8.20;;
79130;SDS011;68530;45.194;9.142;2023-04-06T12:46:34;13.15;;;8.32;;
79130;SDS011;68530;45.194;9.142;2023-04-06T12:49:01;14.30;;;7.70;;
79130;SDS011;68530;45.194;9.142;2023-04-06T12:51:28;12.25;;;7.97;;
79130;SDS011;68530;45.194;9.142;2023-04-06T12:53:53;14.85;;;8.18;;
79130;SDS011;68530;45.194;9.142;2023-04-06T12:56:19;12.88;;;8.73;;
79130;SDS011;68530;45.194;9.142;2023-04-06T12:58:50;13.43;;;9.52;;
79130;SDS011;68530;45.194;9.142;2023-04-06T13:01:16;14.60;;;9.35;;
79130;SDS011;68530;45.194;9.142;2023-04-06T13:03:41;12.85;;;8.70;;
79130;SDS011;68530;45.194;9.142;2023-04-06T13:06:07;11.95;;;8.38;;
79130;SDS011;68530;45.194;9.142;2023-04-06T13:08:34;12.60;;;8.32;;
79130;SDS011;68530;45.194;9.142;2023-04-06T13:11:01;11.43;;;8.38;;
79130;SDS011;68530;45.194;9.142;2023-04-06T13:13:27;16.52;;;9.52;;
79130;SDS011;68530;45.194;9.142;2023-04-06T13:15:55;12.10;;;9.05;;
79130;SDS011;68530;45.194;9.142;2023-04-06T13:18:26;15.43;;;10.00;;
79130;SDS011;68530;45.194;9.142;2023-04-06T13:20:51;12.98;;;9.32;;
79130;SDS011;68530;45.194;9.142;2023-04-06T13:23:16;13.68;;;9.75;;
79130;SDS011;68530;45.194;9.142;2023-04-06T13:25:42;13.10;;;9.85;;
79130;SDS011;68530;45.194;9.142;2023-04-06T13:28:08;13.40;;;9.68;;
79130;SDS011;68530;45.194;9.142;2023-04-06T13:30:34;15.85;;;10.13;;
79130;SDS011;68530;45.194;9.142;2023-04-06T13:33:00;13.68;;;10.68;;
79130;SDS011;68530;45.194;9.142;2023-04-06T13:35:25;12.50;;;9.73;;
79130;SDS011;68530;45.194;9.142;2023-04-06T13:37:51;14.95;;;9.98;;
79130;SDS011;68530;45.194;9.142;2023-04-06T13:40:17;15.85;;;10.70;;
79130;SDS011;68530;45.194;9.142;2023-04-06T13:42:43;15.57;;;10.15;;
79130;SDS011;68530;45.194;9.142;2023-04-06T13:45:10;15.90;;;10.07;;
79130;SDS011;68530;45.194;9.142;2023-04-06T13:47:35;14.05;;;10.07;;
79130;SDS011;68530;45.194;9.142;2023-04-06T13:50:01;14.73;;;10.20;;
79130;SDS011;68530;45.194;9.142;2023-04-06T13:52:27;14.63;;;10.20;;
79130;SDS011;68530;45.194;9.142;2023-04-06T13:54:53;14.95;;;9.68;;
79130;SDS011;68530;45.194;9.142;2023-04-06T13:57:18;15.10;;;10.30;;
79130;SDS011;68530;45.194;9.142;2023-04-06T13:59:43;13.80;;;10.20;;
79130;SDS011;68530;45.194;9.142;2023-04-06T14:02:09;15.60;;;9.82;;
79130;SDS011;68530;45.194;9.142;2023-04-06T14:04:35;12.90;;;9.20;;
79130;SDS011;68530;45.194;9.142;2023-04-06T14:07:02;14.15;;;9.38;;
79130;SDS011;68530;45.194;9.142;2023-04-06T14:09:28;13.68;;;9.02;;
79130;SDS011;68530;45.194;9.142;2023-04-06T14:11:55;15.07;;;9.70;;
79130;SDS011;68530;45.194;9.142;2023-04-06T14:14:21;14.82;;;9.55;;
79130;SDS011;68530;45.194;9.142;2023-04-06T14:16:48;13.93;;;9.40;;
79130;SDS011;68530;45.194;9.142;2023-04-06T14:19:14;12.15;;;8.90;;
79130;SDS011;68530;45.194;9.142;2023-04-06T14:21:42;13.57;;;9.38;;
79130;SDS011;68530;45.194;9.142;2023-04-06T14:24:09;14.02;;;10.07;;
79130;SDS011;68530;45.194;9.142;2023-04-06T14:26:35;13.38;;;9.05;;
79130;SDS011;68530;45.194;9.142;2023-04-06T14:29:01;16.20;;;9.90;;
79130;SDS011;68530;45.194;9.142;2023-04-06T14:31:29;13.70;;;9.75;;
79130;SDS011;68530;45.194;9.142;2023-04-06T14:33:54;13.10;;;9.25;;
79130;SDS011;68530;45.194;9.142;2023-04-06T14:36:20;17.85;;;10.70;;
79130;SDS011;68530;45.194;9.142;2023-04-06T14:38:45;16.45;;;9.77;;
79130;SDS011;68530;45.194;9.142;2023-04-06T14:41:20;16.05;;;9.63;;